Map

Track Data

SID SEASON NUMBER BASIN SUBBASIN NAME ISO_TIME NATURE LAT LON WMO_WIND WMO_PRES WMO_AGENCY TRACK_TYPE DIST2LAND LANDFALL IFLAG USA_AGENCY USA_ATCF_ID USA_LAT USA_LON USA_RECORD USA_STATUS USA_WIND USA_PRES USA_SSHS USA_R34_NE USA_R34_SE USA_R34_SW USA_R34_NW USA_R50_NE USA_R50_SE USA_R50_SW USA_R50_NW USA_R64_NE USA_R64_SE USA_R64_SW USA_R64_NW USA_POCI USA_ROCI USA_RMW USA_EYE TOKYO_LAT TOKYO_LON TOKYO_GRADE TOKYO_WIND TOKYO_PRES TOKYO_R50_DIR TOKYO_R50_LONG TOKYO_R50_SHORT TOKYO_R30_DIR TOKYO_R30_LONG TOKYO_R30_SHORT TOKYO_LAND CMA_LAT CMA_LON CMA_CAT CMA_WIND CMA_PRES HKO_LAT HKO_LON HKO_CAT HKO_WIND HKO_PRES NEWDELHI_LAT NEWDELHI_LON NEWDELHI_GRADE NEWDELHI_WIND NEWDELHI_PRES NEWDELHI_CI NEWDELHI_DP NEWDELHI_POCI REUNION_LAT REUNION_LON REUNION_TYPE REUNION_WIND REUNION_PRES REUNION_TNUM REUNION_CI REUNION_RMW REUNION_R34_NE REUNION_R34_SE REUNION_R34_SW REUNION_R34_NW REUNION_R50_NE REUNION_R50_SE REUNION_R50_SW REUNION_R50_NW REUNION_R64_NE REUNION_R64_SE REUNION_R64_SW REUNION_R64_NW BOM_LAT BOM_LON BOM_TYPE BOM_WIND BOM_PRES BOM_TNUM BOM_CI BOM_RMW BOM_R34_NE BOM_R34_SE BOM_R34_SW BOM_R34_NW BOM_R50_NE BOM_R50_SE BOM_R50_SW BOM_R50_NW BOM_R64_NE BOM_R64_SE BOM_R64_SW BOM_R64_NW BOM_ROCI BOM_POCI BOM_EYE BOM_POS_METHOD BOM_PRES_METHOD NADI_LAT NADI_LON NADI_CAT NADI_WIND NADI_PRES WELLINGTON_LAT WELLINGTON_LON WELLINGTON_WIND WELLINGTON_PRES DS824_LAT DS824_LON DS824_STAGE DS824_WIND DS824_PRES TD9636_LAT TD9636_LON TD9636_STAGE TD9636_WIND TD9636_PRES TD9635_LAT TD9635_LON TD9635_WIND TD9635_PRES TD9635_ROCI NEUMANN_LAT NEUMANN_LON NEUMANN_CLASS NEUMANN_WIND NEUMANN_PRES MLC_LAT MLC_LON MLC_CLASS MLC_WIND MLC_PRES USA_GUST BOM_GUST BOM_GUST_PER REUNION_GUST REUNION_GUST_PER USA_SEAHGT USA_SEARAD_NE USA_SEARAD_SE USA_SEARAD_SW USA_SEARAD_NW STORM_SPEED STORM_DIR
1936217N19300 1936 32 NA NA NOT_NAMED 1936-08-04 06:00:00 TS 18.8000 -60.0000 30 hurdat_atl main 591 533 O_____________ hurdat_atl AL061936 18.8000 -60.0000 TD 30 -1 15 309
1936217N19300 1936 32 NA NA NOT_NAMED 1936-08-04 09:00:00 TS 19.2605 -60.6092 main 535 484 P_____________ AL061936 19.2605 -60.6092 TD 30 -1 15 308
1936217N19300 1936 32 NA NA NOT_NAMED 1936-08-04 12:00:00 TS 19.7000 -61.2000 30 hurdat_atl main 484 446 O_____________ hurdat_atl AL061936 19.7000 -61.2000 TD 30 -1 14 308
1936217N19300 1936 32 NA NA NOT_NAMED 1936-08-04 15:00:00 TS 20.1073 -61.7579 main 441 418 P_____________ AL061936 20.1073 -61.7579 TD 30 -1 13 308
1936217N19300 1936 32 NA NA NOT_NAMED 1936-08-04 18:00:00 TS 20.5000 -62.3000 30 hurdat_atl main 418 397 O_____________ hurdat_atl AL061936 20.5000 -62.3000 TD 30 -1 13 308
1936217N19300 1936 32 NA NA NOT_NAMED 1936-08-04 21:00:00 TS 20.9072 -62.8428 main 405 394 P_____________ AL061936 20.9072 -62.8428 TD 30 -1 13 308
1936217N19300 1936 32 NA NA NOT_NAMED 1936-08-05 00:00:00 TS 21.3000 -63.4000 30 hurdat_atl main 397 391 O_____________ hurdat_atl AL061936 21.3000 -63.4000 TD 30 -1 13 305
1936217N19300 1936 32 NA NA NOT_NAMED 1936-08-05 03:00:00 TS 21.6574 -64.0003 main 405 400 P_____________ AL061936 21.6574 -64.0003 TD 30 -1 13 302
1936217N19300 1936 32 NA NA NOT_NAMED 1936-08-05 06:00:00 TS 22.0000 -64.6000 30 hurdat_atl main 415 413 O_____________ hurdat_atl AL061936 22.0000 -64.6000 TD 30 -1 13 303
1936217N19300 1936 32 NA NA NOT_NAMED 1936-08-05 09:00:00 TS 22.3724 -65.1725 main 449 448 P_____________ AL061936 22.3724 -65.1725 TD 30 -1 12 305
1936217N19300 1936 32 NA NA NOT_NAMED 1936-08-05 12:00:00 TS 22.7000 -65.7000 30 hurdat_atl main 480 480 O_____________ hurdat_atl AL061936 22.7000 -65.7000 TD 30 -1 11 301
1936217N19300 1936 32 NA NA NOT_NAMED 1936-08-05 15:00:00 TS 22.9298 -66.1728 main 503 503 P_____________ AL061936 22.9298 -66.1728 TD 30 -1 9 296
1936217N19300 1936 32 NA NA NOT_NAMED 1936-08-05 18:00:00 TS 23.1000 -66.6000 30 hurdat_atl main 508 496 O_____________ hurdat_atl AL061936 23.1000 -66.6000 TD 30 -1 8 293
1936217N19300 1936 32 NA NA NOT_NAMED 1936-08-05 21:00:00 TS 23.2574 -67.0152 main 506 492 P_____________ AL061936 23.2574 -67.0152 TD 30 -1 8 292
1936217N19300 1936 32 NA NA NOT_NAMED 1936-08-06 00:00:00 TS 23.4000 -67.4000 30 hurdat_atl main 498 494 O_____________ hurdat_atl AL061936 23.4000 -67.4000 TD 30 -1 7 292
1936217N19300 1936 32 NA NA NOT_NAMED 1936-08-06 03:00:00 TS 23.5349 -67.7577 main 491 491 P_____________ AL061936 23.5349 -67.7577 TD 30 -1 7 295
1936217N19300 1936 32 NA NA NOT_NAMED 1936-08-06 06:00:00 TS 23.7000 -68.1000 30 hurdat_atl main 498 494 O_____________ hurdat_atl AL061936 23.7000 -68.1000 TD 30 -1 7 300
1936217N19300 1936 32 NA NA NOT_NAMED 1936-08-06 09:00:00 TS 23.9049 -68.4503 main 505 505 P_____________ AL061936 23.9049 -68.4503 TD 30 -1 8 308
1936217N19300 1936 32 NA NA NOT_NAMED 1936-08-06 12:00:00 TS 24.2000 -68.8000 30 hurdat_atl main 525 525 O_____________ hurdat_atl AL061936 24.2000 -68.8000 TD 30 -1 10 317
1936217N19300 1936 32 NA NA NOT_NAMED 1936-08-06 15:00:00 TS 24.6125 -69.1649 main 543 543 P_____________ AL061936 24.6125 -69.1649 TD 32 -1 11 325
1936217N19300 1936 32 NA NA NOT_NAMED 1936-08-06 18:00:00 TS 25.1000 -69.5000 35 hurdat_atl main 563 563 O_____________ hurdat_atl AL061936 25.1000 -69.5000 TS 35 0 11 331
1936217N19300 1936 32 NA NA NOT_NAMED 1936-08-06 21:00:00 TS 25.5924 -69.7727 main 590 590 P_____________ AL061936 25.5924 -69.7727 TS 35 0 11 336
1936217N19300 1936 32 NA NA NOT_NAMED 1936-08-07 00:00:00 TS 26.1000 -70.0000 35 hurdat_atl main 626 626 O_____________ hurdat_atl AL061936 26.1000 -70.0000 TS 35 0 11 338
1936217N19300 1936 32 NA NA NOT_NAMED 1936-08-07 03:00:00 TS 26.6075 -70.2299 main 667 667 P_____________ AL061936 26.6075 -70.2299 TS 35 0 11 340
1936217N19300 1936 32 NA NA NOT_NAMED 1936-08-07 06:00:00 TS 27.1000 -70.4000 35 hurdat_atl main 710 710 O_____________ hurdat_atl AL061936 27.1000 -70.4000 TS 35 0 10 346
1936217N19300 1936 32 NA NA NOT_NAMED 1936-08-07 09:00:00 TS 27.5799 -70.4951 main 758 758 P_____________ AL061936 27.5799 -70.4951 TS 35 0 9 355
1936217N19300 1936 32 NA NA NOT_NAMED 1936-08-07 12:00:00 TS 28.0000 -70.5000 35 hurdat_atl main 800 800 O_____________ hurdat_atl AL061936 28.0000 -70.5000 TS 35 0 8 4
1936217N19300 1936 32 NA NA NOT_NAMED 1936-08-07 15:00:00 TS 28.3300 -70.4301 main 834 834 P_____________ AL061936 28.3300 -70.4301 TS 35 0 6 16
1936217N19300 1936 32 NA NA NOT_NAMED 1936-08-07 18:00:00 TS 28.6000 -70.3000 35 hurdat_atl main 857 857 O_____________ hurdat_atl AL061936 28.6000 -70.3000 TS 35 0 6 24
1936217N19300 1936 32 NA NA NOT_NAMED 1936-08-07 21:00:00 TS 28.8575 -70.1649 main 878 874 P_____________ AL061936 28.8575 -70.1649 TS 35 0 6 28
1936217N19300 1936 32 NA NA NOT_NAMED 1936-08-08 00:00:00 TS 29.1000 -70.0000 35 hurdat_atl main 874 864 O_____________ hurdat_atl AL061936 29.1000 -70.0000 TS 35 0 6 32
1936217N19300 1936 32 NA NA NOT_NAMED 1936-08-08 03:00:00 TS 29.3500 -69.8149 main 871 862 P_____________ AL061936 29.3500 -69.8149 TS 35 0 6 35
1936217N19300 1936 32 NA NA NOT_NAMED 1936-08-08 06:00:00 TS 29.6000 -69.6000 35 hurdat_atl main 862 854 O_____________ hurdat_atl AL061936 29.6000 -69.6000 TS 35 0 6 38
1936217N19300 1936 32 NA NA NOT_NAMED 1936-08-08 09:00:00 TS 29.8349 -69.3722 main 861 860 P_____________ AL061936 29.8349 -69.3722 TS 35 0 7 41
1936217N19300 1936 32 NA NA NOT_NAMED 1936-08-08 12:00:00 TS 30.1000 -69.1000 35 hurdat_atl main 860 860 O_____________ hurdat_atl AL061936 30.1000 -69.1000 TS 35 0 8 41
1936217N19300 1936 32 NA NA NOT_NAMED 1936-08-08 15:00:00 TS 30.4275 -68.7724 main 861 861 P_____________ AL061936 30.4275 -68.7724 TS 35 0 9 41
1936217N19300 1936 32 NA NA NOT_NAMED 1936-08-08 18:00:00 TS 30.8000 -68.4000 35 hurdat_atl main 862 862 O_____________ hurdat_atl AL061936 30.8000 -68.4000 TS 35 0 10 41
1936217N19300 1936 32 NA NA NOT_NAMED 1936-08-08 21:00:00 TS 31.1849 -68.0072 main 862 862 P_____________ AL061936 31.1849 -68.0072 TS 35 0 11 41
1936217N19300 1936 32 NA NA NOT_NAMED 1936-08-09 00:00:00 TS 31.6000 -67.6000 35 hurdat_atl main 866 863 O_____________ hurdat_atl AL061936 31.6000 -67.6000 TS 35 0 11 39
1936217N19300 1936 32 NA NA NOT_NAMED 1936-08-09 03:00:00 TS 32.0348 -67.2070 main 873 867 P_____________ AL061936 32.0348 -67.2070 TS 35 0 11 37
1936217N19300 1936 32 NA NA NOT_NAMED 1936-08-09 06:00:00 TS 32.5000 -66.8000 35 hurdat_atl main 879 874 O_____________ hurdat_atl AL061936 32.5000 -66.8000 TS 35 0 12 37
1936217N19300 1936 32 NA NA NOT_NAMED 1936-08-09 09:00:00 TS 32.9773 -66.3717 main 889 889 P_____________ AL061936 32.9773 -66.3717 TS 35 0 13 37
1936217N19300 1936 32 NA NA NOT_NAMED 1936-08-09 12:00:00 TS 33.5000 -65.9000 35 hurdat_atl main 912 912 O_____________ hurdat_atl AL061936 33.5000 -65.9000 TS 35 0 14 38
1936217N19300 1936 32 NA NA NOT_NAMED 1936-08-09 15:00:00 TS 34.0473 -65.3786 main 940 901 P_____________ AL061936 34.0473 -65.3786 TS 35 0 15 37
1936217N19300 1936 32 NA NA NOT_NAMED 1936-08-09 18:00:00 TS 34.7000 -64.8000 35 hurdat_atl main 901 862 O_____________ hurdat_atl AL061936 34.7000 -64.8000 TS 35 0 17 35
1936217N19300 1936 32 NA NA NOT_NAMED 1936-08-09 21:00:00 TS 35.4823 -64.1713 main 853 814 P_____________ AL061936 35.4823 -64.1713 TS 35 0 20 32
1936217N19300 1936 32 NA NA NOT_NAMED 1936-08-10 00:00:00 ET 36.4000 -63.5000 35 hurdat_atl main 804 718 O_____________ hurdat_atl AL061936 36.4000 -63.5000 EX 35 -4 22 30
1936217N19300 1936 32 NA NA NOT_NAMED 1936-08-10 03:00:00 ET 37.4047 -62.8133 main 710 623 P_____________ AL061936 37.4047 -62.8133 EX 35 -4 24 28
1936217N19300 1936 32 NA NA NOT_NAMED 1936-08-10 06:00:00 ET 38.5000 -62.1000 35 hurdat_atl main 617 541 O_____________ hurdat_atl AL061936 38.5000 -62.1000 EX 35 -4 25 27
1936217N19300 1936 32 NA NA NOT_NAMED 1936-08-10 09:00:00 ET 39.6190 -61.3907 main 541 474 P_____________ AL061936 39.6190 -61.3907 EX 37 -4 26 27
1936217N19300 1936 32 NA NA NOT_NAMED 1936-08-10 12:00:00 ET 40.8000 -60.6000 40 hurdat_atl main 469 381 O_____________ hurdat_atl AL061936 40.8000 -60.6000 EX 40 -4 27 28
1936217N19300 1936 32 NA NA NOT_NAMED 1936-08-10 15:00:00 ET 42.0177 -59.7124 main 373 292 P_____________ AL061936 42.0177 -59.7124 EX 42 -4 29 31
1936217N19300 1936 32 NA NA NOT_NAMED 1936-08-10 18:00:00 ET 43.3000 -58.6000 45 hurdat_atl main 289 256 O_____________ hurdat_atl AL061936 43.3000 -58.6000 EX 45 -4 32 35
1936217N19300 1936 32 NA NA NOT_NAMED 1936-08-10 21:00:00 ET 44.6349 -57.1592 main 262 100 P_____________ AL061936 44.6349 -57.1592 EX 42 -4 35 39
1936217N19300 1936 32 NA NA NOT_NAMED 1936-08-11 00:00:00 ET 46.0000 -55.5000 40 hurdat_atl main 90 0 O_____________ hurdat_atl AL061936 46.0000 -55.5000 EX 40 -4 35 40
1936217N19300 1936 32 NA NA NOT_NAMED 1936-08-11 03:00:00 ET 47.3378 -53.8410 main 0 0 P_____________ AL061936 47.3378 -53.8410 EX 40 -4 36 41
1936217N19300 1936 32 NA NA NOT_NAMED 1936-08-11 06:00:00 ET 48.7000 -52.0000 40 hurdat_atl main 76 76 O_____________ hurdat_atl AL061936 48.7000 -52.0000 EX 40 -4 38 44
1936217N19300 1936 32 NA NA NOT_NAMED 1936-08-11 09:00:00 ET 50.0757 -49.8503 main 272 272 P_____________ AL061936 50.0757 -49.8503 EX 40 -4 40 46
1936217N19300 1936 32 NA NA NOT_NAMED 1936-08-11 12:00:00 ET 51.5000 -47.5000 40 hurdat_atl main 488 488 O_____________ hurdat_atl AL061936 51.5000 -47.5000 EX 40 -4 42 46
1936217N19300 1936 32 NA NA NOT_NAMED 1936-08-11 15:00:00 ET 52.9917 -45.0622 main 706 631 P_____________ AL061936 52.9917 -45.0622 EX 37 -4 42 45
1936217N19300 1936 32 NA NA NOT_NAMED 1936-08-11 18:00:00 ET 54.5000 -42.5000 35 hurdat_atl main 621 O_____________ hurdat_atl AL061936 54.5000 -42.5000 EX 35 -4 42 45

About IBTrACS Database

This database is a web-friendly format of International Best Track Archive for Climate Stewardship (IBTrACS), a global best track data archive curated by NOAA dating back to 1842.

Updated: 2021-10-08